Rocky Mount, North Carolina
Current Conditions -  °F | °C
As of 7:53 PM on Thursday 27 Nov 2014 (Local Time) from KRWI Reporting Station
Clear Clear  
Wind Chill: 34°   Ceiling: Unl
Heat Index: 40°   Visibility: 10mi
Dew Point: 34°   Wind: 8mph
Humidity: 79%   Direction: 320°NW
Pressure: 30.19"   Gusts: NA
Location:  35.95°N, 77.79°W
Report Text: KRWI 280053Z AUTO 32007KT 10SM CLR 04/01 A3019 RMK AO2 SLP223 T00440011
Loading
Personal Weather Stations






























Interactive Weather Map New forecast layout! Learn more

10-Day Weather Forecast

Advertisements
Track Severe Weather on mobile